createdAt,value
2022-09-26T00:01:46.247Z,20.40
2022-09-26T00:05:22.795Z,20.50
2022-09-26T00:09:19.514Z,21.60
2022-09-26T00:12:39.882Z,22.70
2022-09-26T00:16:17.799Z,18.70
2022-09-26T00:19:53.331Z,19.00
2022-09-26T00:23:30.146Z,20.20
2022-09-26T00:27:25.945Z,20.00
2022-09-26T00:31:12.738Z,20.70
2022-09-26T00:34:33.638Z,20.00
2022-09-26T00:38:10.440Z,19.70
2022-09-26T00:41:47.261Z,16.80
2022-09-26T00:45:28.053Z,18.60
2022-09-26T00:49:26.581Z,35.30
2022-09-26T00:53:09.376Z,31.90
2022-09-26T00:56:35.390Z,19.90
2022-09-26T01:00:10.960Z,18.70
2022-09-26T01:03:47.865Z,18.30
2022-09-26T01:07:24.314Z,18.70
2022-09-26T01:10:59.278Z,19.90
2022-09-26T01:14:39.214Z,21.50
2022-09-26T01:18:11.918Z,18.90
2022-09-26T01:22:23.490Z,20.50
2022-09-26T01:26:12.945Z,19.60
2022-09-26T01:30:19.061Z,18.80
2022-09-26T01:34:13.130Z,17.30
2022-09-26T01:37:59.651Z,20.80
2022-09-26T01:41:36.045Z,22.10
2022-09-26T01:45:21.982Z,20.60
2022-09-26T01:48:50.733Z,24.50
2022-09-26T01:52:50.706Z,20.10
2022-09-26T01:56:36.407Z,21.40
2022-09-26T02:00:01.318Z,21.20
2022-09-26T02:04:04.117Z,22.20
2022-09-26T02:07:52.160Z,20.50
2022-09-26T02:11:31.421Z,24.60
2022-09-26T02:15:15.928Z,18.70
2022-09-26T02:18:53.528Z,22.60
2022-09-26T02:22:15.536Z,21.40
2022-09-26T02:25:51.579Z,32.70
2022-09-26T02:29:28.523Z,25.80
2022-09-26T02:33:24.546Z,23.10
2022-09-26T02:36:46.341Z,18.40
2022-09-26T02:40:28.052Z,20.00
2022-09-26T02:44:39.055Z,19.10
2022-09-26T02:48:30.158Z,20.10
2022-09-26T02:52:01.749Z,21.00
2022-09-26T02:55:55.434Z,21.40
2022-09-26T02:59:26.717Z,21.50
2022-09-26T03:03:24.007Z,21.10
2022-09-26T03:06:49.300Z,28.50
2022-09-26T03:10:21.586Z,31.80
2022-09-26T03:14:20.434Z,23.20
2022-09-26T03:17:54.652Z,23.90
2022-09-26T03:21:18.584Z,23.60
2022-09-26T03:25:20.935Z,28.20
2022-09-26T03:29:19.409Z,24.40
2022-09-26T03:32:40.706Z,24.00
2022-09-26T03:36:17.245Z,20.30
2022-09-26T03:39:53.378Z,21.70
2022-09-26T03:43:31.481Z,30.40
2022-09-26T03:47:26.391Z,24.10
2022-09-26T03:50:47.471Z,25.70
2022-09-26T03:54:24.021Z,22.20
2022-09-26T03:58:01.356Z,23.10
2022-09-26T04:02:00.936Z,20.10
2022-09-26T04:05:42.783Z,24.00
2022-09-26T04:09:03.289Z,24.60
2022-09-26T04:12:40.385Z,24.10
2022-09-26T04:16:36.476Z,24.40
2022-09-26T04:20:05.415Z,21.70
2022-09-26T04:24:01.809Z,22.60
2022-09-26T04:27:27.222Z,21.70
2022-09-26T04:31:00.664Z,22.40
2022-09-26T04:34:38.296Z,24.50
2022-09-26T04:38:13.159Z,30.90
2022-09-26T04:42:08.739Z,24.70
2022-09-26T04:45:47.737Z,21.70
2022-09-26T04:49:09.000Z,22.20
2022-09-26T04:52:45.389Z,20.50
2022-09-26T04:56:41.025Z,22.90
2022-09-26T05:00:02.292Z,24.60
2022-09-26T05:03:39.360Z,25.00
2022-09-26T05:07:16.380Z,25.70
2022-09-26T05:10:55.148Z,24.00
2022-09-26T05:14:29.720Z,31.20
2022-09-26T05:18:25.784Z,21.60
2022-09-26T05:21:47.830Z,24.00
2022-09-26T05:25:42.269Z,24.50
2022-09-26T05:29:08.317Z,24.30
2022-09-26T05:32:49.493Z,22.90
2022-09-26T05:36:27.522Z,25.80
2022-09-26T05:40:21.712Z,22.60
2022-09-26T05:43:45.052Z,23.90
2022-09-26T05:47:41.200Z,23.60
2022-09-26T05:51:21.691Z,23.20
2022-09-26T05:54:43.037Z,23.00
2022-09-26T05:58:27.816Z,24.60
2022-09-26T06:02:17.257Z,24.10
2022-09-26T06:05:50.950Z,24.30
2022-09-26T06:09:46.228Z,23.50
2022-09-26T06:13:15.376Z,23.90
2022-09-26T06:17:08.728Z,47.10
2022-09-26T06:20:29.300Z,31.00
2022-09-26T06:24:06.185Z,29.20
2022-09-26T06:28:01.770Z,27.90
2022-09-26T06:31:42.813Z,23.20
2022-09-26T06:35:03.550Z,25.90
2022-09-26T06:38:42.457Z,26.10
2022-09-26T06:42:37.312Z,26.00
2022-09-26T06:46:36.212Z,27.70
2022-09-26T06:50:07.929Z,25.80
2022-09-26T06:53:45.870Z,25.30
2022-09-26T06:57:22.024Z,24.00
2022-09-26T07:01:17.857Z,22.80
2022-09-26T07:05:18.878Z,22.50
2022-09-26T07:09:03.805Z,25.20
2022-09-26T07:13:08.846Z,26.30
2022-09-26T07:16:30.665Z,28.10
2022-09-26T07:20:14.073Z,25.10
2022-09-26T07:23:58.569Z,24.20
2022-09-26T07:27:31.632Z,21.80
2022-09-26T07:31:07.837Z,22.80
2022-09-26T07:34:44.623Z,20.90
2022-09-26T07:38:40.233Z,21.10
2022-09-26T07:42:03.617Z,19.10
2022-09-26T07:45:57.293Z,18.00
2022-09-26T07:49:37.885Z,14.60
2022-09-26T07:53:18.712Z,19.50
2022-09-26T07:57:19.490Z,21.20
2022-09-26T08:01:16.384Z,15.20
2022-09-26T08:05:00.942Z,16.30
2022-09-26T08:08:34.877Z,14.70
2022-09-26T08:12:22.774Z,14.10
2022-09-26T08:16:38.873Z,15.50
2022-09-26T08:20:19.956Z,13.50
2022-09-26T08:24:01.300Z,12.50
2022-09-26T08:27:38.836Z,14.00
2022-09-26T08:31:34.697Z,12.00
2022-09-26T08:35:14.563Z,10.80
2022-09-26T08:39:29.051Z,10.10
2022-09-26T08:43:28.072Z,9.20
2022-09-26T08:47:36.872Z,7.40
2022-09-26T08:51:46.629Z,6.60
2022-09-26T08:55:21.159Z,7.40
2022-09-26T08:58:52.354Z,8.20
2022-09-26T09:02:24.773Z,7.60
2022-09-26T09:06:12.078Z,6.20
2022-09-26T09:09:35.851Z,7.10
2022-09-26T09:13:40.955Z,8.00
2022-09-26T09:17:57.229Z,6.50
2022-09-26T09:21:57.265Z,5.70
2022-09-26T09:30:17.629Z,6.10
2022-09-26T09:34:31.359Z,7.10
2022-09-26T09:38:18.324Z,7.70
2022-09-26T09:42:13.285Z,9.10
2022-09-26T09:45:51.313Z,7.40
2022-09-26T09:49:22.451Z,7.60
2022-09-26T11:02:51.228Z,6.10
2022-09-26T11:06:31.974Z,7.10
2022-09-26T11:11:28.935Z,8.00
2022-09-26T11:15:13.210Z,8.10
2022-09-26T11:24:10.945Z,5.60
2022-09-26T11:28:11.726Z,6.80
2022-09-26T11:32:05.448Z,7.70
2022-09-26T11:36:52.096Z,7.40
2022-09-26T11:40:31.446Z,8.50
2022-09-26T11:44:50.368Z,7.80
2022-09-26T11:48:38.519Z,8.30
2022-09-26T11:52:48.264Z,8.70
2022-09-26T11:56:46.507Z,7.90
2022-09-26T12:00:16.154Z,7.70
2022-09-26T12:04:14.163Z,6.50
2022-09-26T12:07:58.999Z,8.00
2022-09-26T12:11:55.846Z,7.20
2022-09-26T12:15:27.301Z,8.00
2022-09-26T12:19:15.659Z,7.60
2022-09-26T12:23:06.404Z,7.40
2022-09-26T12:26:58.362Z,8.10
2022-09-26T12:30:49.211Z,8.30
2022-09-26T12:35:43.162Z,7.30
2022-09-26T12:39:56.815Z,5.90
2022-09-26T12:43:48.101Z,6.00
2022-09-26T12:47:37.970Z,6.80
2022-09-26T12:51:22.187Z,5.90
2022-09-26T12:55:23.902Z,6.50
2022-09-26T12:59:16.228Z,7.60
2022-09-26T13:02:50.939Z,6.60
2022-09-26T13:06:33.559Z,5.90
2022-09-26T13:10:52.476Z,6.70
2022-09-26T13:15:08.161Z,5.70
2022-09-26T13:18:59.422Z,5.70
2022-09-26T13:22:49.213Z,5.70
2022-09-26T13:26:50.124Z,7.20
2022-09-26T13:30:26.237Z,6.60
2022-09-26T13:33:59.327Z,6.20
2022-09-26T13:37:41.960Z,5.90
2022-09-26T13:41:47.773Z,7.40
2022-09-26T13:45:26.581Z,5.50
2022-09-26T13:49:33.371Z,4.90
2022-09-26T13:53:26.279Z,5.00
2022-09-26T13:57:29.554Z,4.60
2022-09-26T14:01:27.198Z,4.60
2022-09-26T14:04:50.298Z,4.10
2022-09-26T14:08:43.412Z,12.50
2022-09-26T14:12:51.814Z,13.80
2022-09-26T14:16:35.021Z,7.80
2022-09-26T14:20:00.280Z,10.20
2022-09-26T14:23:41.497Z,10.80
2022-09-26T14:27:12.127Z,7.60
2022-09-26T14:31:23.599Z,7.70
2022-09-26T14:35:39.905Z,8.30
2022-09-26T14:39:02.751Z,14.80
2022-09-26T14:42:43.861Z,19.20
2022-09-26T14:46:35.148Z,9.60
2022-09-26T14:50:33.709Z,6.70
2022-09-26T14:54:26.915Z,7.70
2022-09-26T14:57:48.543Z,7.80
2022-09-26T15:01:46.991Z,21.30
2022-09-26T15:05:11.334Z,15.50
2022-09-26T15:09:11.195Z,13.10
2022-09-26T15:12:56.662Z,7.50
2022-09-26T15:16:44.772Z,4.30
2022-09-26T15:20:13.393Z,3.40
2022-09-26T15:24:21.971Z,2.80
2022-09-26T15:27:46.264Z,3.20
2022-09-26T15:31:21.049Z,3.20
2022-09-26T15:34:57.377Z,2.90
2022-09-26T15:38:33.149Z,1.80
2022-09-26T15:42:48.455Z,1.50
2022-09-26T15:46:28.671Z,1.70
2022-09-26T15:50:01.946Z,2.00
2022-09-26T15:53:42.645Z,2.80
2022-09-26T15:57:08.110Z,2.50
2022-09-26T16:00:45.428Z,2.20
2022-09-26T16:04:40.140Z,2.70
2022-09-26T16:08:26.975Z,2.70
2022-09-26T16:11:53.330Z,3.20
2022-09-26T16:15:45.516Z,4.40
2022-09-26T16:19:07.357Z,4.50
2022-09-26T16:23:05.133Z,7.70
2022-09-26T16:26:46.004Z,15.80
2022-09-26T16:30:29.381Z,8.10
2022-09-26T16:33:53.619Z,7.60
2022-09-26T16:37:27.345Z,10.70
2022-09-26T16:41:56.809Z,11.00
2022-09-26T16:45:14.191Z,7.10
2022-09-26T16:48:51.414Z,6.10
2022-09-26T16:52:36.773Z,8.80
2022-09-26T16:56:01.789Z,32.80
2022-09-26T17:00:43.882Z,10.80
2022-09-26T17:04:10.495Z,9.40
2022-09-26T17:07:41.469Z,8.10
2022-09-26T17:11:37.074Z,8.50
2022-09-26T17:15:25.011Z,7.60
2022-09-26T17:18:45.824Z,7.50
2022-09-26T17:22:24.157Z,9.40
2022-09-26T17:26:00.117Z,9.00
2022-09-26T17:29:40.870Z,9.20
2022-09-26T17:33:13.143Z,9.00
2022-09-26T17:36:50.223Z,8.50
2022-09-26T17:40:32.293Z,7.80
2022-09-26T17:44:04.988Z,8.90
2022-09-26T17:47:40.955Z,9.40
2022-09-26T17:51:17.053Z,10.20
2022-09-26T17:55:12.761Z,15.00
2022-09-26T17:58:34.592Z,16.50
2022-09-26T18:02:32.792Z,19.30
2022-09-26T18:06:13.966Z,20.20
2022-09-26T18:09:53.461Z,18.10
2022-09-26T18:13:37.530Z,19.00
2022-09-26T18:16:59.777Z,19.60
2022-09-26T18:20:56.837Z,17.50
2022-09-26T18:24:36.477Z,19.60
2022-09-26T18:28:01.783Z,16.30
2022-09-26T18:31:38.517Z,17.70
2022-09-26T18:35:24.349Z,18.40
2022-09-26T18:39:06.516Z,18.00
2022-09-26T18:42:27.875Z,17.00
2022-09-26T18:46:05.724Z,15.90
2022-09-26T18:49:42.203Z,15.10
2022-09-26T18:53:20.978Z,13.60
2022-09-26T18:57:12.915Z,13.20
2022-09-26T19:00:36.361Z,13.20
2022-09-26T19:04:23.305Z,14.70
2022-09-26T19:07:48.393Z,16.50
2022-09-26T19:11:26.985Z,14.00
2022-09-26T19:15:20.838Z,14.00
2022-09-26T19:19:01.208Z,15.30
2022-09-26T19:22:21.801Z,15.50
2022-09-26T19:25:58.985Z,14.30
2022-09-26T19:29:58.358Z,13.10
2022-09-26T19:33:19.949Z,10.90
2022-09-26T19:36:56.511Z,11.00
2022-09-26T19:40:32.866Z,11.00
2022-09-26T19:44:09.408Z,11.00
2022-09-26T19:48:05.602Z,10.00
2022-09-26T19:51:26.441Z,10.00
2022-09-26T19:55:11.781Z,10.00
2022-09-26T19:58:43.440Z,9.10
2022-09-26T20:02:20.774Z,12.10
2022-09-26T20:05:53.660Z,11.40
2022-09-26T20:09:31.222Z,10.60
2022-09-26T20:13:07.375Z,14.00
2022-09-26T20:16:43.894Z,17.40
2022-09-26T20:20:24.401Z,18.10
2022-09-26T20:24:18.254Z,16.70
2022-09-26T20:27:39.322Z,18.50
2022-09-26T20:31:34.989Z,17.90
2022-09-26T20:35:00.459Z,15.60
2022-09-26T20:38:43.771Z,15.20
2022-09-26T20:42:34.404Z,18.40
2022-09-26T20:45:55.578Z,21.30
2022-09-26T20:49:57.793Z,17.80
2022-09-26T20:53:37.191Z,17.40
2022-09-26T20:57:18.945Z,15.00
2022-09-26T21:00:58.787Z,15.10
2022-09-26T21:04:27.754Z,15.40
2022-09-26T21:07:58.193Z,17.10
2022-09-26T21:11:33.086Z,16.20
2022-09-26T21:15:31.163Z,18.10
2022-09-26T21:19:18.748Z,17.50
2022-09-26T21:22:40.596Z,14.20
2022-09-26T21:26:19.426Z,14.30
2022-09-26T21:29:54.022Z,16.20
2022-09-26T21:33:34.921Z,17.60
2022-09-26T21:37:26.968Z,16.70
2022-09-26T21:40:52.754Z,18.40
2022-09-26T21:44:31.097Z,19.50
2022-09-26T21:48:19.679Z,18.20
2022-09-26T21:52:23.313Z,20.80
2022-09-26T21:55:50.333Z,21.50
2022-09-26T21:59:23.047Z,22.20
2022-09-26T22:03:16.429Z,20.90
2022-09-26T22:06:56.100Z,18.80
2022-09-26T22:10:36.333Z,18.60
2022-09-26T22:14:15.881Z,19.00
2022-09-26T22:17:55.409Z,18.20
2022-09-26T22:21:15.879Z,18.80
2022-09-26T22:25:11.842Z,21.90
2022-09-26T22:28:51.398Z,19.10
2022-09-26T22:32:13.303Z,17.20
2022-09-26T22:36:08.085Z,15.00
2022-09-26T22:39:28.719Z,18.90
2022-09-26T22:43:05.464Z,18.40
2022-09-26T22:46:42.404Z,17.80
2022-09-26T22:50:19.202Z,16.70
2022-09-26T22:53:55.929Z,15.40
2022-09-26T22:57:32.711Z,14.90
2022-09-26T23:01:12.694Z,15.40
2022-09-26T23:05:05.185Z,16.80
2022-09-26T23:08:26.659Z,15.30
2022-09-26T23:12:04.049Z,16.00
2022-09-26T23:15:39.864Z,15.80
2022-09-26T23:19:35.626Z,16.30
2022-09-26T23:23:15.085Z,15.30
2022-09-26T23:26:35.622Z,18.60
2022-09-26T23:30:31.139Z,16.80
2022-09-26T23:33:53.067Z,16.30
2022-09-26T23:37:28.881Z,18.10
2022-09-26T23:41:11.193Z,15.90
2022-09-26T23:44:42.447Z,15.70
2022-09-26T23:48:19.695Z,15.50
2022-09-26T23:51:57.545Z,17.10
2022-09-26T23:55:52.527Z,17.50
2022-09-26T23:59:13.371Z,17.70
